Time;durP1;ratioP1;P1;durP2;ratioP2;P2;SDS_P1;SDS_P2;PMS_P1;PMS_P2;Temp;Humidity;BMP_temperature;BMP_pressure;BME280_temperature;BME280_humidity;BME280_pressure;Samples;Min_cycle;Max_cycle;Signal;HPM_P1;HPM_P2
2023/04/24 00:01:36;;;;;;;5.55;1.67;;;;;;;;;;4969758;28;20069;-76
2023/04/24 00:04:19;;;;;;;8.00;1.90;;;;;;;;;;4988360;28;20054;-72
2023/04/24 00:06:53;;;;;;;3.47;1.30;;;;;;;;;;4988522;28;20049;-71
2023/04/24 00:09:28;;;;;;;7.63;1.92;;;;;;;;;;4987562;28;20054;-76
2023/04/24 00:11:59;;;;;;;9.60;2.10;;;;;;;;;;4969983;28;20062;-75
2023/04/24 00:14:34;;;;;;;3.35;1.50;;;;;;;;;;4987083;28;20050;-73
2023/04/24 00:17:06;;;;;;;5.30;1.70;;;;;;;;;;4988313;28;20053;-75
2023/04/24 00:19:38;;;;;;;11.38;2.50;;;;;;;;;;4986728;28;20054;-73
2023/04/24 00:22:16;;;;;;;4.45;2.10;;;;;;;;;;4987476;28;20055;-71
2023/04/24 00:24:50;;;;;;;5.05;1.80;;;;;;;;;;4988154;28;20034;-74
2023/04/24 00:27:22;;;;;;;3.28;2.10;;;;;;;;;;4987484;28;20050;-75
2023/04/24 00:29:54;;;;;;;5.60;2.00;;;;;;;;;;4970228;28;20050;-76
2023/04/24 00:32:28;;;;;;;5.82;2.33;;;;;;;;;;4969248;28;20608;-75
2023/04/24 00:35:05;;;;;;;6.80;2.67;;;;;;;;;;4970011;28;20054;-75
2023/04/24 00:37:37;;;;;;;8.80;2.40;;;;;;;;;;4987893;28;20382;-74
2023/04/24 00:40:08;;;;;;;3.70;1.80;;;;;;;;;;4988704;28;20039;-74
2023/04/24 00:42:44;;;;;;;3.08;1.65;;;;;;;;;;4970651;28;20054;-73
2023/04/24 00:45:16;;;;;;;5.95;2.25;;;;;;;;;;4992463;28;20905;-71
2023/04/24 00:47:52;;;;;;;4.85;2.08;;;;;;;;;;4996644;28;20042;-74
2023/04/24 00:50:25;;;;;;;7.15;2.40;;;;;;;;;;4997256;28;20433;-75
2023/04/24 00:52:55;;;;;;;2.22;1.85;;;;;;;;;;4977978;28;20050;-75
2023/04/24 00:55:29;;;;;;;6.90;2.47;;;;;;;;;;5001041;28;20050;-70
2023/04/24 00:58:01;;;;;;;3.78;1.90;;;;;;;;;;4988768;28;20054;-75
2023/04/24 01:00:31;;;;;;;4.10;1.80;;;;;;;;;;5007135;28;20061;-76
2023/04/24 01:03:05;;;;;;;2.63;2.00;;;;;;;;;;4988078;28;20054;-77
2023/04/24 01:05:39;;;;;;;5.05;2.53;;;;;;;;;;4987826;28;20065;-74
2023/04/24 01:08:11;;;;;;;2.63;1.95;;;;;;;;;;5006419;28;20045;-73
2023/04/24 01:10:44;;;;;;;3.60;2.30;;;;;;;;;;5006558;28;20061;-76
2023/04/24 01:13:14;;;;;;;7.13;2.72;;;;;;;;;;5006731;28;20037;-76
2023/04/24 01:15:47;;;;;;;6.72;2.08;;;;;;;;;;5005987;28;20536;-72
2023/04/24 01:18:21;;;;;;;7.47;2.33;;;;;;;;;;5006570;28;20642;-75
2023/04/24 01:20:57;;;;;;;7.68;2.75;;;;;;;;;;4988272;28;20061;-75
2023/04/24 01:23:27;;;;;;;2.80;1.90;;;;;;;;;;5005775;28;20045;-75
2023/04/24 01:25:58;;;;;;;4.28;2.03;;;;;;;;;;5005806;28;20133;-73
2023/04/24 01:28:29;;;;;;;5.15;2.47;;;;;;;;;;4989608;28;20523;-72
2023/04/24 01:31:00;;;;;;;4.90;2.65;;;;;;;;;;5006047;28;20412;-75
2023/04/24 01:33:31;;;;;;;4.72;3.05;;;;;;;;;;5000239;28;20058;-76
2023/04/24 01:36:04;;;;;;;3.20;2.03;;;;;;;;;;4987458;28;20045;-70
2023/04/24 01:38:36;;;;;;;4.28;2.40;;;;;;;;;;4985352;28;20080;-75
2023/04/24 01:41:07;;;;;;;5.03;2.00;;;;;;;;;;5003853;28;20524;-74
2023/04/24 01:43:37;;;;;;;5.85;2.60;;;;;;;;;;5004259;28;20519;-74
2023/04/24 01:46:09;;;;;;;5.28;2.85;;;;;;;;;;5005119;28;20042;-74
2023/04/24 01:48:41;;;;;;;5.40;2.67;;;;;;;;;;5004442;28;20049;-75
2023/04/24 01:51:12;;;;;;;5.13;2.10;;;;;;;;;;5004515;28;20068;-76
2023/04/24 01:53:42;;;;;;;6.25;2.88;;;;;;;;;;5006381;28;20053;-74
2023/04/24 01:56:15;;;;;;;6.80;2.85;;;;;;;;;;4987985;28;20053;-71
2023/04/24 01:58:47;;;;;;;3.45;2.05;;;;;;;;;;4987729;28;20065;-72
2023/04/24 02:01:24;;;;;;;5.03;2.40;;;;;;;;;;4987387;28;20046;-72
2023/04/24 02:03:54;;;;;;;4.35;2.70;;;;;;;;;;4987392;28;20054;-74
2023/04/24 02:06:25;;;;;;;5.15;2.58;;;;;;;;;;4987532;28;20641;-75
2023/04/24 02:08:58;;;;;;;5.45;2.40;;;;;;;;;;4987698;28;20058;-75
2023/04/24 02:11:29;;;;;;;4.25;3.00;;;;;;;;;;5004704;28;20045;-73
2023/04/24 02:13:59;;;;;;;4.60;2.97;;;;;;;;;;4986975;28;20077;-73
2023/04/24 02:16:32;;;;;;;4.80;2.92;;;;;;;;;;4987148;28;20053;-71
2023/04/24 02:19:04;;;;;;;6.35;2.97;;;;;;;;;;5005619;28;20042;-74
2023/04/24 02:21:34;;;;;;;3.33;2.58;;;;;;;;;;4987917;28;20050;-71
2023/04/24 02:24:06;;;;;;;4.28;2.78;;;;;;;;;;5005777;28;20527;-73
2023/04/24 02:26:36;;;;;;;4.05;2.47;;;;;;;;;;5017425;28;20045;-71
2023/04/24 02:29:07;;;;;;;2.85;2.38;;;;;;;;;;5025714;28;20810;-76
2023/04/24 02:31:38;;;;;;;5.28;2.42;;;;;;;;;;5025191;28;20504;-75
2023/04/24 02:34:08;;;;;;;5.88;2.42;;;;;;;;;;5025048;28;20041;-76
2023/04/24 02:36:38;;;;;;;4.10;2.63;;;;;;;;;;4991793;28;20049;-72
2023/04/24 02:39:09;;;;;;;6.47;2.60;;;;;;;;;;5025130;28;20041;-75
2023/04/24 02:41:41;;;;;;;8.00;3.00;;;;;;;;;;5025009;28;20409;-71
2023/04/24 02:44:12;;;;;;;4.22;2.55;;;;;;;;;;5023991;28;20511;-73
2023/04/24 02:46:41;;;;;;;4.43;2.92;;;;;;;;;;5025445;28;20053;-75
2023/04/24 02:49:13;;;;;;;3.08;2.80;;;;;;;;;;5025241;28;20516;-74
2023/04/24 02:51:44;;;;;;;3.05;2.60;;;;;;;;;;5024665;28;20045;-75
2023/04/24 02:54:15;;;;;;;2.67;2.42;;;;;;;;;;5023074;28;20049;-74
2023/04/24 02:56:45;;;;;;;5.43;2.13;;;;;;;;;;5025168;28;20037;-75
2023/04/24 02:59:15;;;;;;;5.57;2.92;;;;;;;;;;5022960;28;20064;-74
2023/04/24 03:01:47;;;;;;;3.88;2.33;;;;;;;;;;5023471;28;20049;-74
2023/04/24 03:04:20;;;;;;;6.43;2.45;;;;;;;;;;5024631;28;20063;-73
2023/04/24 03:06:52;;;;;;;4.50;2.78;;;;;;;;;;5024313;28;20050;-71
2023/04/24 03:09:23;;;;;;;9.00;2.60;;;;;;;;;;5023230;28;20528;-76
2023/04/24 03:11:55;;;;;;;5.20;2.70;;;;;;;;;;5023198;28;20783;-72
2023/04/24 03:14:25;;;;;;;4.13;2.78;;;;;;;;;;5024872;28;20049;-74
2023/04/24 03:16:56;;;;;;;3.30;2.40;;;;;;;;;;5024561;28;20046;-75
2023/04/24 03:19:27;;;;;;;2.53;1.92;;;;;;;;;;5024551;28;20117;-74
2023/04/24 03:22:06;;;;;;;4.25;2.47;;;;;;;;;;5023028;28;20056;-72
2023/04/24 03:24:37;;;;;;;5.28;3.17;;;;;;;;;;5021749;28;20061;-73
2023/04/24 03:27:07;;;;;;;3.65;3.15;;;;;;;;;;4986745;28;20057;-71
2023/04/24 03:29:58;;;;;;;8.10;3.10;;;;;;;;;;5004115;28;20061;-74
2023/04/24 03:32:49;;;;;;;2.97;2.70;;;;;;;;;;5004316;28;20057;-74
2023/04/24 03:35:24;;;;;;;3.45;3.15;;;;;;;;;;4971080;28;20532;-76
2023/04/24 03:37:55;;;;;;;7.57;2.55;;;;;;;;;;4985871;28;20073;-75
2023/04/24 03:40:55;;;;;;;5.10;2.45;;;;;;;;;;4986863;28;20543;-74
2023/04/24 03:43:56;;;;;;;2.33;2.08;;;;;;;;;;4987907;28;20088;-73
2023/04/24 03:46:26;;;;;;;5.43;3.10;;;;;;;;;;5003734;28;20697;-77
2023/04/24 03:49:00;;;;;;;4.90;2.67;;;;;;;;;;4987040;28;20058;-71
2023/04/24 03:51:35;;;;;;;3.58;2.40;;;;;;;;;;4986614;28;20429;-77
2023/04/24 03:54:19;;;;;;;4.85;2.22;;;;;;;;;;4986682;28;20050;-74
2023/04/24 03:56:50;;;;;;;3.85;2.25;;;;;;;;;;4986327;28;20130;-74
2023/04/24 03:59:21;;;;;;;2.38;1.98;;;;;;;;;;4986487;28;20050;-74
2023/04/24 04:02:05;;;;;;;4.32;1.98;;;;;;;;;;4986448;28;20057;-73
2023/04/24 04:04:36;;;;;;;2.85;2.45;;;;;;;;;;5008062;28;20416;-73
2023/04/24 04:07:08;;;;;;;3.25;2.25;;;;;;;;;;4990269;28;20048;-73
2023/04/24 04:09:39;;;;;;;3.35;2.20;;;;;;;;;;4990003;28;20050;-74
2023/04/24 04:12:10;;;;;;;3.72;2.45;;;;;;;;;;5007996;28;20642;-74
2023/04/24 04:14:41;;;;;;;3.13;2.00;;;;;;;;;;4989119;28;20054;-74
2023/04/24 04:17:11;;;;;;;4.50;2.70;;;;;;;;;;5007637;28;20421;-71
2023/04/24 04:19:41;;;;;;;4.70;2.20;;;;;;;;;;4989848;28;20058;-71
2023/04/24 04:22:12;;;;;;;6.13;2.40;;;;;;;;;;4989736;28;20057;-76
2023/04/24 04:24:48;;;;;;;4.43;2.05;;;;;;;;;;4973483;28;20069;-74
2023/04/24 04:27:21;;;;;;;2.63;1.80;;;;;;;;;;4989446;28;20058;-75
2023/04/24 04:30:04;;;;;;;2.35;2.13;;;;;;;;;;4988918;28;20058;-73
2023/04/24 04:32:43;;;;;;;3.40;2.63;;;;;;;;;;4989783;28;20054;-72
2023/04/24 04:35:14;;;;;;;3.85;1.95;;;;;;;;;;4989024;28;20046;-73
2023/04/24 04:37:46;;;;;;;1.85;1.75;;;;;;;;;;4989198;28;20072;-72
2023/04/24 04:40:33;;;;;;;3.15;2.20;;;;;;;;;;4989157;28;20054;-72
2023/04/24 04:43:06;;;;;;;3.10;2.13;;;;;;;;;;4989061;28;20068;-74
2023/04/24 04:45:44;;;;;;;3.50;2.17;;;;;;;;;;4988830;28;20057;-74
2023/04/24 04:48:45;;;;;;;2.60;1.77;;;;;;;;;;4936440;28;20060;-72
2023/04/24 04:51:15;;;;;;;2.55;1.70;;;;;;;;;;5007294;28;20053;-72
2023/04/24 04:53:45;;;;;;;2.25;1.60;;;;;;;;;;4990026;28;20050;-74
2023/04/24 04:56:16;;;;;;;2.55;1.30;;;;;;;;;;4988367;28;20073;-74
2023/04/24 04:58:47;;;;;;;1.50;1.35;;;;;;;;;;4989324;28;20053;-75
2023/04/24 05:01:19;;;;;;;2.88;1.80;;;;;;;;;;4988786;28;20049;-76
2023/04/24 05:03:50;;;;;;;2.00;1.50;;;;;;;;;;4989036;28;20053;-76
2023/04/24 05:06:21;;;;;;;3.85;1.73;;;;;;;;;;4988950;28;20431;-73
2023/04/24 05:08:56;;;;;;;2.58;1.70;;;;;;;;;;4988432;28;20054;-73
2023/04/24 05:11:45;;;;;;;1.52;1.20;;;;;;;;;;4988340;28;20053;-73
2023/04/24 05:14:17;;;;;;;2.30;1.40;;;;;;;;;;4972477;28;20524;-71
2023/04/24 05:16:48;;;;;;;1.80;1.60;;;;;;;;;;5006809;28;20415;-71
2023/04/24 05:19:21;;;;;;;3.15;1.75;;;;;;;;;;4988569;28;20042;-76
2023/04/24 05:21:51;;;;;;;4.07;1.85;;;;;;;;;;4988266;28;20054;-71
2023/04/24 05:24:21;;;;;;;3.38;1.35;;;;;;;;;;4988280;28;20062;-73
2023/04/24 05:27:08;;;;;;;4.32;1.40;;;;;;;;;;4975059;28;20058;-76
2023/04/24 05:29:41;;;;;;;5.57;1.80;;;;;;;;;;5007152;28;20330;-72
2023/04/24 05:32:13;;;;;;;1.50;1.33;;;;;;;;;;4988464;28;20054;-75
2023/04/24 05:34:43;;;;;;;1.85;1.70;;;;;;;;;;4988278;28;20057;-73
2023/04/24 05:37:14;;;;;;;1.98;1.70;;;;;;;;;;4988002;28;20507;-75
2023/04/24 05:39:45;;;;;;;3.35;1.75;;;;;;;;;;4987862;28;20520;-73
2023/04/24 05:42:15;;;;;;;2.25;1.50;;;;;;;;;;4988558;28;20062;-72
2023/04/24 05:44:46;;;;;;;3.85;1.58;;;;;;;;;;5006264;28;20050;-72
2023/04/24 05:47:16;;;;;;;2.05;1.83;;;;;;;;;;4987718;28;20050;-74
2023/04/24 05:49:46;;;;;;;2.15;1.58;;;;;;;;;;4988390;28;20061;-73
2023/04/24 05:52:16;;;;;;;1.73;1.35;;;;;;;;;;4988129;28;20056;-72
2023/04/24 05:54:46;;;;;;;2.17;1.98;;;;;;;;;;4987675;28;20061;-73
2023/04/24 05:57:21;;;;;;;2.10;1.50;;;;;;;;;;4987768;28;20046;-72
2023/04/24 06:00:01;;;;;;;3.60;1.52;;;;;;;;;;4973550;28;20089;-77
2023/04/24 06:02:40;;;;;;;1.70;1.38;;;;;;;;;;5012463;28;20049;-76
2023/04/24 06:05:13;;;;;;;4.22;1.80;;;;;;;;;;4987771;28;20406;-75
2023/04/24 06:07:43;;;;;;;2.55;1.60;;;;;;;;;;4987575;28;20054;-75
2023/04/24 06:10:15;;;;;;;3.05;1.52;;;;;;;;;;4987584;28;20050;-74
2023/04/24 06:12:45;;;;;;;4.05;1.50;;;;;;;;;;4987190;28;20058;-74
2023/04/24 06:15:17;;;;;;;2.30;1.17;;;;;;;;;;4987527;28;20064;-72
2023/04/24 06:18:01;;;;;;;5.40;1.27;;;;;;;;;;4987187;28;20049;-75
2023/04/24 06:20:32;;;;;;;1.75;1.13;;;;;;;;;;4987647;28;20050;-73
2023/04/24 06:23:02;;;;;;;1.52;0.90;;;;;;;;;;4987350;28;20054;-74
2023/04/24 06:25:34;;;;;;;3.88;1.00;;;;;;;;;;4998965;28;20061;-73
2023/04/24 06:28:06;;;;;;;1.48;0.88;;;;;;;;;;5025303;28;20496;-76
2023/04/24 06:30:36;;;;;;;2.10;0.95;;;;;;;;;;5023278;28;20076;-74
2023/04/24 06:33:07;;;;;;;1.15;1.00;;;;;;;;;;5025333;28;20061;-71
2023/04/24 06:35:48;;;;;;;0.63;0.63;;;;;;;;;;5025545;28;20053;-72
2023/04/24 06:38:20;;;;;;;1.23;1.05;;;;;;;;;;5025053;28;20045;-75
2023/04/24 06:40:50;;;;;;;0.93;0.60;;;;;;;;;;5024988;28;20602;-73
2023/04/24 06:43:20;;;;;;;1.45;0.95;;;;;;;;;;5024691;28;20500;-74
2023/04/24 06:45:51;;;;;;;1.85;0.80;;;;;;;;;;5024934;28;20045;-77
2023/04/24 06:48:21;;;;;;;1.17;0.60;;;;;;;;;;5025353;28;20052;-74
2023/04/24 06:50:53;;;;;;;1.90;0.73;;;;;;;;;;5025042;28;20427;-74
2023/04/24 06:53:23;;;;;;;0.50;0.50;;;;;;;;;;5025552;28;20525;-74
2023/04/24 06:55:53;;;;;;;4.88;0.70;;;;;;;;;;5024716;28;20049;-77
2023/04/24 06:58:24;;;;;;;0.73;0.40;;;;;;;;;;5024845;28;20049;-71
2023/04/24 07:00:55;;;;;;;0.30;0.30;;;;;;;;;;5025006;28;20045;-72
2023/04/24 07:03:25;;;;;;;0.77;0.60;;;;;;;;;;5025352;28;20065;-74
2023/04/24 07:05:57;;;;;;;0.47;0.40;;;;;;;;;;5022775;28;20053;-77
2023/04/24 07:08:30;;;;;;;2.88;0.70;;;;;;;;;;5022769;28;21217;-74
2023/04/24 07:11:02;;;;;;;2.17;0.70;;;;;;;;;;5024898;28;20057;-74
2023/04/24 07:13:35;;;;;;;0.88;0.65;;;;;;;;;;5024433;28;20048;-72
2023/04/24 07:16:05;;;;;;;1.60;0.50;;;;;;;;;;5024495;28;20068;-72
2023/04/24 07:18:37;;;;;;;2.28;0.57;;;;;;;;;;5024695;28;20057;-74
2023/04/24 07:21:07;;;;;;;0.75;0.40;;;;;;;;;;5024894;28;20049;-72
2023/04/24 07:23:38;;;;;;;1.58;0.70;;;;;;;;;;5024272;28;20722;-74
2023/04/24 07:26:08;;;;;;;0.75;0.40;;;;;;;;;;5012154;28;20665;-73
2023/04/24 07:28:39;;;;;;;3.78;0.80;;;;;;;;;;5005757;28;20412;-75
2023/04/24 07:31:12;;;;;;;1.58;0.65;;;;;;;;;;5004774;28;20050;-78
2023/04/24 07:33:42;;;;;;;0.70;0.68;;;;;;;;;;5004730;28;20054;-76
2023/04/24 07:36:15;;;;;;;0.82;0.60;;;;;;;;;;5005180;28;20054;-75
2023/04/24 07:38:47;;;;;;;0.63;0.63;;;;;;;;;;5008528;28;20067;-75
2023/04/24 07:41:18;;;;;;;1.33;0.60;;;;;;;;;;5008563;28;20050;-77
2023/04/24 07:43:47;;;;;;;0.40;0.40;;;;;;;;;;4991152;28;20050;-72
2023/04/24 07:46:18;;;;;;;1.00;0.70;;;;;;;;;;5008743;28;20056;-72
2023/04/24 07:48:47;;;;;;;1.08;0.68;;;;;;;;;;5008594;28;20046;-77
2023/04/24 07:51:37;;;;;;;0.82;0.50;;;;;;;;;;5008416;28;20042;-75
2023/04/24 07:54:09;;;;;;;;;;;;;;;;;;5008400;28;20053;-75
2023/04/24 07:56:42;;;;;;;2.00;0.70;;;;;;;;;;5008198;28;19932;-75
2023/04/24 07:59:12;;;;;;;0.60;0.60;;;;;;;;;;5008170;28;20050;-74
2023/04/24 08:01:42;;;;;;;4.53;0.70;;;;;;;;;;5008606;28;20048;-74
2023/04/24 08:04:12;;;;;;;1.83;0.70;;;;;;;;;;5008361;28;20417;-75
2023/04/24 08:06:48;;;;;;;1.33;0.63;;;;;;;;;;5007997;28;20042;-75
2023/04/24 08:09:19;;;;;;;0.60;0.60;;;;;;;;;;5008381;28;20049;-75
2023/04/24 08:11:49;;;;;;;1.50;0.40;;;;;;;;;;5007401;28;20050;-73
2023/04/24 08:14:20;;;;;;;1.92;0.77;;;;;;;;;;4989714;28;20064;-74
2023/04/24 08:16:59;;;;;;;0.93;0.50;;;;;;;;;;5007653;28;20042;-74
2023/04/24 08:19:30;;;;;;;0.60;0.50;;;;;;;;;;4990279;28;20050;-74
2023/04/24 08:22:00;;;;;;;2.55;0.93;;;;;;;;;;5007738;28;20049;-74
2023/04/24 08:24:30;;;;;;;2.03;0.60;;;;;;;;;;4989508;28;20060;-76
2023/04/24 08:27:01;;;;;;;1.20;0.50;;;;;;;;;;5007762;28;20066;-75
2023/04/24 08:29:32;;;;;;;1.85;0.63;;;;;;;;;;5007314;28;20054;-74
2023/04/24 08:32:02;;;;;;;1.88;0.45;;;;;;;;;;5007796;28;20508;-76
2023/04/24 08:34:33;;;;;;;3.22;0.55;;;;;;;;;;5007405;28;20076;-72
2023/04/24 08:37:04;;;;;;;0.52;0.30;;;;;;;;;;5007685;28;20052;-72
2023/04/24 08:39:37;;;;;;;1.75;0.85;;;;;;;;;;5007578;28;20412;-75
2023/04/24 08:42:09;;;;;;;1.17;0.35;;;;;;;;;;5007364;28;20060;-73
2023/04/24 08:44:39;;;;;;;3.22;0.52;;;;;;;;;;5007807;28;20045;-75
2023/04/24 08:47:11;;;;;;;0.82;0.50;;;;;;;;;;5007279;28;20057;-77
2023/04/24 08:49:48;;;;;;;0.60;0.55;;;;;;;;;;5006805;28;20130;-75
2023/04/24 08:52:19;;;;;;;2.05;0.75;;;;;;;;;;5007771;28;20523;-74
2023/04/24 08:54:50;;;;;;;3.65;0.68;;;;;;;;;;5007630;28;20057;-74
2023/04/24 08:57:20;;;;;;;0.88;0.40;;;;;;;;;;5006910;28;20057;-77
2023/04/24 08:59:50;;;;;;;3.25;0.60;;;;;;;;;;5007347;28;20046;-74
2023/04/24 09:02:22;;;;;;;3.38;0.55;;;;;;;;;;5007421;28;20060;-74
2023/04/24 09:04:53;;;;;;;1.27;0.45;;;;;;;;;;5006108;28;20053;-74
2023/04/24 09:07:27;;;;;;;0.35;0.35;;;;;;;;;;5007077;28;20056;-75
2023/04/24 09:09:58;;;;;;;2.03;0.50;;;;;;;;;;5006969;28;20409;-73
2023/04/24 09:12:29;;;;;;;2.10;0.45;;;;;;;;;;5006895;28;20053;-74
2023/04/24 09:15:03;;;;;;;0.65;0.52;;;;;;;;;;5006664;28;20046;-75
2023/04/24 09:17:35;;;;;;;0.60;0.60;;;;;;;;;;5004449;28;20054;-73
2023/04/24 09:20:06;;;;;;;1.30;0.50;;;;;;;;;;4969820;28;20054;-78
2023/04/24 09:22:38;;;;;;;3.90;0.80;;;;;;;;;;4987061;28;20046;-77
2023/04/24 09:25:12;;;;;;;3.75;0.80;;;;;;;;;;4986992;28;20065;-74
2023/04/24 09:27:44;;;;;;;2.40;0.50;;;;;;;;;;4986723;28;20054;-73
2023/04/24 09:30:22;;;;;;;4.22;0.90;;;;;;;;;;4969022;28;20050;-72
2023/04/24 09:33:15;;;;;;;3.58;0.90;;;;;;;;;;4987297;28;20050;-76
2023/04/24 09:35:51;;;;;;;0.75;0.70;;;;;;;;;;4987022;28;20069;-71
2023/04/24 09:38:42;;;;;;;1.73;0.90;;;;;;;;;;4987619;28;20053;-72
2023/04/24 09:41:14;;;;;;;4.80;0.82;;;;;;;;;;4986735;28;21228;-76
2023/04/24 09:43:45;;;;;;;4.85;1.17;;;;;;;;;;4986611;28;20050;-74
2023/04/24 09:46:19;;;;;;;4.40;1.00;;;;;;;;;;4986607;28;20054;-73
2023/04/24 09:48:51;;;;;;;5.05;1.20;;;;;;;;;;4986410;28;20054;-76
2023/04/24 09:51:36;;;;;;;2.47;1.40;;;;;;;;;;4986871;28;20050;-73
2023/04/24 09:54:29;;;;;;;7.50;2.17;;;;;;;;;;4987186;28;20049;-78
2023/04/24 09:57:03;;;;;;;3.00;1.00;;;;;;;;;;4968941;28;20058;-75
2023/04/24 09:59:33;;;;;;;3.97;1.17;;;;;;;;;;4968297;28;20054;-77
2023/04/24 10:02:18;;;;;;;8.00;1.30;;;;;;;;;;4986357;28;20046;-73
2023/04/24 10:04:59;;;;;;;3.35;1.30;;;;;;;;;;4984962;28;20057;-72
2023/04/24 10:07:33;;;;;;;1.63;1.20;;;;;;;;;;4985598;28;20046;-77
2023/04/24 10:10:03;;;;;;;8.77;1.10;;;;;;;;;;4986120;28;20523;-73
2023/04/24 10:12:33;;;;;;;6.18;1.10;;;;;;;;;;4987205;28;20077;-74
2023/04/24 10:15:05;;;;;;;15.35;1.92;;;;;;;;;;4986426;28;20054;-76
2023/04/24 10:17:37;;;;;;;2.70;1.00;;;;;;;;;;4986241;28;20050;-76
2023/04/24 10:20:08;;;;;;;6.95;1.35;;;;;;;;;;4985645;28;20053;-74
2023/04/24 10:22:39;;;;;;;4.93;1.30;;;;;;;;;;4967910;28;20046;-72
2023/04/24 10:25:11;;;;;;;3.28;1.20;;;;;;;;;;4986227;28;20058;-73
2023/04/24 10:27:42;;;;;;;4.80;1.20;;;;;;;;;;4986066;28;20398;-72
2023/04/24 10:42:28;;;;;;;9.80;1.90;;;;;;;;;;5122909;27;21126;-73
2023/04/24 10:45:01;;;;;;;16.38;2.72;;;;;;;;;;5123043;28;20055;-75
2023/04/24 10:47:41;;;;;;;12.77;2.75;;;;;;;;;;5122564;28;20043;-75
2023/04/24 10:50:11;;;;;;;9.40;2.47;;;;;;;;;;5123059;28;20052;-75
2023/04/24 10:52:47;;;;;;;17.10;2.80;;;;;;;;;;5121409;28;20055;-73
2023/04/24 10:55:51;;;;;;;19.25;2.05;;;;;;;;;;5122681;28;20056;-75
2023/04/24 10:58:37;;;;;;;11.68;1.70;;;;;;;;;;5121851;27;20525;-73
2023/04/24 11:01:07;;;;;;;17.63;2.65;;;;;;;;;;5123021;28;20106;-76
2023/04/24 11:03:41;;;;;;;17.33;1.85;;;;;;;;;;5122517;28;20039;-75
2023/04/24 11:06:13;;;;;;;17.27;2.55;;;;;;;;;;5122366;28;20054;-72
2023/04/24 11:08:46;;;;;;;13.43;1.98;;;;;;;;;;5122883;28;20066;-74
2023/04/24 11:11:20;;;;;;;22.08;1.98;;;;;;;;;;5120731;28;20056;-74
2023/04/24 11:13:56;;;;;;;14.68;1.35;;;;;;;;;;5122028;28;20502;-77
2023/04/24 11:16:34;;;;;;;19.20;2.03;;;;;;;;;;5122095;28;20047;-74
2023/04/24 11:19:08;;;;;;;12.60;1.33;;;;;;;;;;5120490;28;20051;-74
2023/04/24 11:21:42;;;;;;;16.05;2.05;;;;;;;;;;5122371;28;20413;-75
2023/04/24 11:24:29;;;;;;;14.68;3.15;;;;;;;;;;5121879;28;20054;-75
2023/04/24 11:27:09;;;;;;;15.30;1.88;;;;;;;;;;5122440;27;20501;-74
2023/04/24 11:29:40;;;;;;;9.50;2.38;;;;;;;;;;5122351;28;20054;-73
2023/04/24 11:32:27;;;;;;;9.90;1.85;;;;;;;;;;5121497;27;20051;-75
2023/04/24 11:35:06;;;;;;;25.13;3.53;;;;;;;;;;5122111;28;20062;-74
2023/04/24 11:37:43;;;;;;;7.00;2.92;;;;;;;;;;5121326;28;20557;-75
2023/04/24 11:40:15;;;;;;;14.07;2.28;;;;;;;;;;5123714;27;20047;-75
2023/04/24 11:42:48;;;;;;;9.23;3.15;;;;;;;;;;5131641;27;20529;-74
2023/04/24 11:45:25;;;;;;;11.15;1.50;;;;;;;;;;5129257;27;20512;-79
2023/04/24 11:47:58;;;;;;;3.53;1.33;;;;;;;;;;5128981;27;20047;-73
2023/04/24 11:50:29;;;;;;;4.43;1.48;;;;;;;;;;5128662;27;20059;-74
2023/04/24 11:53:00;;;;;;;4.72;1.30;;;;;;;;;;5128493;27;20040;-74
2023/04/24 11:55:30;;;;;;;8.65;1.30;;;;;;;;;;5127997;27;20039;-74
2023/04/24 11:58:01;;;;;;;11.88;1.70;;;;;;;;;;5128566;27;20043;-75
2023/04/24 12:00:36;;;;;;;12.38;1.35;;;;;;;;;;5128671;27;20429;-72
2023/04/24 12:03:09;;;;;;;6.50;1.10;;;;;;;;;;5128070;27;20047;-76
2023/04/24 12:05:40;;;;;;;6.35;1.58;;;;;;;;;;5126900;27;20050;-72
2023/04/24 12:08:12;;;;;;;3.47;1.13;;;;;;;;;;5128268;27;20054;-75
2023/04/24 12:10:43;;;;;;;7.55;1.25;;;;;;;;;;5128232;27;20050;-76
2023/04/24 12:13:13;;;;;;;5.22;1.10;;;;;;;;;;5127771;27;20051;-75
2023/04/24 12:15:43;;;;;;;4.05;1.10;;;;;;;;;;5127889;27;20047;-74
2023/04/24 12:18:16;;;;;;;5.78;1.08;;;;;;;;;;5127894;27;20051;-74
2023/04/24 12:20:48;;;;;;;4.88;1.83;;;;;;;;;;5127601;27;20050;-74
2023/04/24 12:23:39;;;;;;;7.47;1.60;;;;;;;;;;5127994;27;20058;-75
2023/04/24 12:26:09;;;;;;;3.00;1.10;;;;;;;;;;5128252;27;20050;-73
2023/04/24 12:28:40;;;;;;;4.82;1.38;;;;;;;;;;5127547;27;20043;-73
2023/04/24 12:31:11;;;;;;;5.45;1.55;;;;;;;;;;5127430;27;20058;-74
2023/04/24 12:33:41;;;;;;;3.83;1.15;;;;;;;;;;5127764;27;20051;-74
2023/04/24 12:36:12;;;;;;;7.95;1.15;;;;;;;;;;5126607;27;20051;-72
2023/04/24 12:38:46;;;;;;;5.85;1.10;;;;;;;;;;5127654;27;20050;-75
2023/04/24 12:41:19;;;;;;;9.93;1.10;;;;;;;;;;5127323;27;20062;-77
2023/04/24 12:43:53;;;;;;;4.47;1.10;;;;;;;;;;5127587;27;20043;-74
2023/04/24 12:46:23;;;;;;;6.03;0.90;;;;;;;;;;5127264;27;20054;-72
2023/04/24 12:48:54;;;;;;;3.65;1.05;;;;;;;;;;5127062;27;20047;-75
2023/04/24 12:51:24;;;;;;;1.30;0.90;;;;;;;;;;5125768;27;20432;-74
2023/04/24 12:53:54;;;;;;;3.33;0.82;;;;;;;;;;5126358;27;20043;-73
2023/04/24 12:56:25;;;;;;;2.28;1.10;;;;;;;;;;5127219;27;20628;-73
2023/04/24 12:58:54;;;;;;;5.00;1.20;;;;;;;;;;5126862;27;20054;-74
2023/04/24 13:01:25;;;;;;;5.55;1.00;;;;;;;;;;5126902;27;20051;-73
2023/04/24 13:03:56;;;;;;;2.17;0.75;;;;;;;;;;5127400;27;20053;-74
2023/04/24 13:06:26;;;;;;;3.95;0.77;;;;;;;;;;5127289;27;20429;-73
2023/04/24 13:08:57;;;;;;;3.88;0.85;;;;;;;;;;5126920;27;20054;-70
2023/04/24 13:11:28;;;;;;;1.50;0.80;;;;;;;;;;5126643;27;20592;-74
2023/04/24 13:13:58;;;;;;;4.45;1.08;;;;;;;;;;5126804;27;20067;-72
2023/04/24 13:16:28;;;;;;;1.60;0.90;;;;;;;;;;5127041;27;20151;-74
2023/04/24 13:18:58;;;;;;;5.18;0.82;;;;;;;;;;5125723;27;20047;-72
2023/04/24 13:21:30;;;;;;;1.88;0.85;;;;;;;;;;5126656;27;20047;-71
2023/04/24 13:24:04;;;;;;;1.35;0.70;;;;;;;;;;5126556;27;20047;-75
2023/04/24 13:26:35;;;;;;;1.60;0.52;;;;;;;;;;5126407;27;20445;-75
2023/04/24 13:29:06;;;;;;;1.38;0.85;;;;;;;;;;5126546;27;20070;-74
2023/04/24 13:31:36;;;;;;;2.00;0.95;;;;;;;;;;5126280;27;20047;-73
2023/04/24 13:34:07;;;;;;;2.78;1.05;;;;;;;;;;5125460;27;20055;-73
2023/04/24 13:36:38;;;;;;;5.00;1.13;;;;;;;;;;5126194;27;20043;-75
2023/04/24 13:39:10;;;;;;;1.58;0.82;;;;;;;;;;5127107;27;20065;-74
2023/04/24 13:41:40;;;;;;;3.50;0.80;;;;;;;;;;5126806;27;20051;-74
2023/04/24 13:44:10;;;;;;;0.90;0.70;;;;;;;;;;5126324;27;20051;-72
2023/04/24 13:46:44;;;;;;;4.00;1.10;;;;;;;;;;5125324;27;20058;-74
2023/04/24 13:49:16;;;;;;;3.10;1.10;;;;;;;;;;5126076;27;20047;-72
2023/04/24 13:51:46;;;;;;;3.05;0.90;;;;;;;;;;5126195;27;20093;-71
2023/04/24 13:54:16;;;;;;;1.35;0.70;;;;;;;;;;5126591;27;20047;-73
2023/04/24 13:56:47;;;;;;;1.23;1.05;;;;;;;;;;5127300;27;20039;-74
2023/04/24 13:59:20;;;;;;;1.40;1.00;;;;;;;;;;5126575;27;20062;-74
2023/04/24 14:01:51;;;;;;;1.10;0.80;;;;;;;;;;5126049;27;20136;-73
2023/04/24 14:04:21;;;;;;;1.60;0.90;;;;;;;;;;5126318;27;20043;-73
2023/04/24 14:06:51;;;;;;;2.80;1.00;;;;;;;;;;5126004;27;20078;-72
2023/04/24 14:09:22;;;;;;;3.90;1.33;;;;;;;;;;5108722;27;20500;-73
2023/04/24 14:11:53;;;;;;;3.97;0.90;;;;;;;;;;5125781;27;20062;-71
2023/04/24 14:14:24;;;;;;;2.20;0.80;;;;;;;;;;5126023;27;20051;-73
2023/04/24 14:16:54;;;;;;;3.78;1.17;;;;;;;;;;5126013;27;20118;-71
2023/04/24 14:19:24;;;;;;;1.00;0.80;;;;;;;;;;5125656;27;20509;-74
2023/04/24 14:21:58;;;;;;;3.08;0.80;;;;;;;;;;5125336;27;20497;-72
2023/04/24 14:24:28;;;;;;;1.05;0.80;;;;;;;;;;5125690;27;20047;-74
2023/04/24 14:26:58;;;;;;;3.28;0.95;;;;;;;;;;5125961;27;20054;-75
2023/04/24 14:29:28;;;;;;;2.88;0.90;;;;;;;;;;5126496;28;20054;-74
2023/04/24 14:32:00;;;;;;;3.92;0.90;;;;;;;;;;5125942;28;20048;-71
2023/04/24 14:34:33;;;;;;;3.13;0.90;;;;;;;;;;5124569;28;20047;-75
2023/04/24 14:37:03;;;;;;;2.80;1.13;;;;;;;;;;5125516;28;20875;-73
2023/04/24 14:39:33;;;;;;;10.27;2.90;;;;;;;;;;5126014;28;20058;-75
2023/04/24 14:42:04;;;;;;;1.33;0.93;;;;;;;;;;5125311;28;20059;-73
2023/04/24 14:44:35;;;;;;;5.30;0.65;;;;;;;;;;5125776;28;20433;-75
2023/04/24 14:47:06;;;;;;;2.00;0.88;;;;;;;;;;5126001;28;20043;-72
2023/04/24 14:49:36;;;;;;;2.13;1.00;;;;;;;;;;5125479;28;20074;-73
2023/04/24 14:52:07;;;;;;;5.65;1.30;;;;;;;;;;5123145;28;20046;-74
2023/04/24 14:54:39;;;;;;;2.78;1.10;;;;;;;;;;5126259;28;20050;-74
2023/04/24 14:57:09;;;;;;;2.55;1.27;;;;;;;;;;5124188;28;20047;-75
2023/04/24 14:59:39;;;;;;;1.20;0.85;;;;;;;;;;5124879;28;20059;-73
2023/04/24 15:02:10;;;;;;;4.07;1.00;;;;;;;;;;5125406;28;20055;-74
2023/04/24 15:04:46;;;;;;;0.95;0.80;;;;;;;;;;5125514;28;20039;-75
2023/04/24 15:07:16;;;;;;;3.65;0.90;;;;;;;;;;5125371;28;20056;-75
2023/04/24 15:09:47;;;;;;;1.10;0.60;;;;;;;;;;5124854;28;20405;-74
2023/04/24 15:12:18;;;;;;;1.15;0.80;;;;;;;;;;5125538;28;20044;-75
2023/04/24 15:14:48;;;;;;;4.72;0.80;;;;;;;;;;5125394;28;20433;-74
2023/04/24 15:17:18;;;;;;;1.98;0.63;;;;;;;;;;5126697;27;20051;-76
2023/04/24 15:19:49;;;;;;;2.35;0.95;;;;;;;;;;5129216;27;20501;-72
2023/04/24 15:22:19;;;;;;;2.85;1.83;;;;;;;;;;5129319;27;20047;-74
2023/04/24 15:24:50;;;;;;;1.75;1.00;;;;;;;;;;5128220;27;20047;-73
2023/04/24 15:27:19;;;;;;;2.92;0.63;;;;;;;;;;5128816;27;20441;-74
2023/04/24 15:29:49;;;;;;;6.55;1.00;;;;;;;;;;5126572;27;20049;-74